sensor_id;sensor_type;location;lat;lon;timestamp;pressure;altitude;pressure_sealevel;temperature;humidity
48792;BME280;34587;48.816;9.420;2023-02-16T00:01:39;99859.69;;;-0.02;92.91
48792;BME280;34587;48.816;9.420;2023-02-16T00:04:14;99861.25;;;-0.06;93.09
48792;BME280;34587;48.816;9.420;2023-02-16T00:06:41;99859.69;;;-0.23;93.55
48792;BME280;34587;48.816;9.420;2023-02-16T00:09:06;99868.28;;;0.00;93.68
48792;BME280;34587;48.816;9.420;2023-02-16T00:11:33;99867.66;;;0.06;92.90
48792;BME280;34587;48.816;9.420;2023-02-16T00:14:19;99864.25;;;0.05;92.41
48792;BME280;34587;48.816;9.420;2023-02-16T00:16:48;99856.91;;;-0.08;92.71
48792;BME280;34587;48.816;9.420;2023-02-16T00:19:20;99859.31;;;-0.11;92.70
48792;BME280;34587;48.816;9.420;2023-02-16T00:21:47;99860.41;;;-0.26;92.43
48792;BME280;34587;48.816;9.420;2023-02-16T00:24:14;99855.53;;;-0.40;92.32
48792;BME280;34587;48.816;9.420;2023-02-16T00:26:40;99857.63;;;-0.51;93.09
48792;BME280;34587;48.816;9.420;2023-02-16T00:29:06;99863.94;;;-0.62;93.61
48792;BME280;34587;48.816;9.420;2023-02-16T00:31:31;99862.84;;;-0.67;93.80
48792;BME280;34587;48.816;9.420;2023-02-16T00:33:58;99867.00;;;-0.69;93.73
48792;BME280;34587;48.816;9.420;2023-02-16T00:36:23;99863.78;;;-0.65;93.73
48792;BME280;34587;48.816;9.420;2023-02-16T00:38:49;99865.09;;;-0.73;93.93
48792;BME280;34587;48.816;9.420;2023-02-16T00:41:21;99868.59;;;-0.71;94.11
48792;BME280;34587;48.816;9.420;2023-02-16T00:44:13;99861.50;;;-0.79;94.58
48792;BME280;34587;48.816;9.420;2023-02-16T00:46:39;99871.94;;;-0.92;95.51
48792;BME280;34587;48.816;9.420;2023-02-16T00:49:14;99870.81;;;-0.97;96.18
48792;BME280;34587;48.816;9.420;2023-02-16T00:51:40;99878.56;;;-0.76;96.45
48792;BME280;34587;48.816;9.420;2023-02-16T00:54:06;99877.72;;;-0.76;95.79
48792;BME280;34587;48.816;9.420;2023-02-16T00:56:31;99880.09;;;-0.80;95.90
48792;BME280;34587;48.816;9.420;2023-02-16T00:59:19;99886.50;;;-0.88;96.90
48792;BME280;34587;48.816;9.420;2023-02-16T05:16:04;99857.19;;;-2.06;97.32
48792;BME280;34587;48.816;9.420;2023-02-16T05:18:30;99848.47;;;-2.11;97.58
48792;BME280;34587;48.816;9.420;2023-02-16T05:20:55;99858.94;;;-2.05;97.45
48792;BME280;34587;48.816;9.420;2023-02-16T05:23:39;99862.44;;;-2.03;97.84
48792;BME280;34587;48.816;9.420;2023-02-16T05:26:04;99862.00;;;-1.94;97.84
48792;BME280;34587;48.816;9.420;2023-02-16T05:28:29;99867.88;;;-1.95;97.80
48792;BME280;34587;48.816;9.420;2023-02-16T05:30:54;99856.03;;;-1.95;97.49
48792;BME280;34587;48.816;9.420;2023-02-16T05:33:20;99867.81;;;-1.97;97.41
48792;BME280;34587;48.816;9.420;2023-02-16T05:35:45;99866.72;;;-2.02;97.50
48792;BME280;34587;48.816;9.420;2023-02-16T05:38:10;99867.66;;;-2.00;97.64
48792;BME280;34587;48.816;9.420;2023-02-16T05:40:36;99867.66;;;-2.00;97.74
48792;BME280;34587;48.816;9.420;2023-02-16T05:43:01;99876.88;;;-2.02;97.58
48792;BME280;34587;48.816;9.420;2023-02-16T05:45:26;99879.41;;;-2.02;97.42
48792;BME280;34587;48.816;9.420;2023-02-16T05:47:51;99874.00;;;-2.08;97.19
48792;BME280;34587;48.816;9.420;2023-02-16T05:50:17;99875.19;;;-2.01;97.10
48792;BME280;34587;48.816;9.420;2023-02-16T05:52:42;99877.50;;;-2.06;96.72
48792;BME280;34587;48.816;9.420;2023-02-16T05:55:08;99885.75;;;-2.10;96.68
48792;BME280;34587;48.816;9.420;2023-02-16T05:57:33;99880.38;;;-2.16;96.77
48792;BME280;34587;48.816;9.420;2023-02-16T05:59:59;99878.78;;;-2.14;97.38
48792;BME280;34587;48.816;9.420;2023-02-16T06:02:25;99888.81;;;-2.17;97.40
48792;BME280;34587;48.816;9.420;2023-02-16T06:04:50;99894.28;;;-2.26;97.27
48792;BME280;34587;48.816;9.420;2023-02-16T06:07:15;99892.44;;;-2.12;97.38
48792;BME280;34587;48.816;9.420;2023-02-16T06:09:41;99895.91;;;-2.10;97.17
48792;BME280;34587;48.816;9.420;2023-02-16T06:12:06;99892.56;;;-2.09;96.57
48792;BME280;34587;48.816;9.420;2023-02-16T06:14:31;99896.97;;;-2.23;96.59
48792;BME280;34587;48.816;9.420;2023-02-16T06:16:57;99904.34;;;-2.11;96.46
48792;BME280;34587;48.816;9.420;2023-02-16T06:19:22;99901.81;;;-2.11;96.98
48792;BME280;34587;48.816;9.420;2023-02-16T06:21:48;99898.63;;;-2.07;96.58
48792;BME280;34587;48.816;9.420;2023-02-16T06:24:13;99907.34;;;-2.18;97.14
48792;BME280;34587;48.816;9.420;2023-02-16T06:26:39;99910.00;;;-1.99;97.01
48792;BME280;34587;48.816;9.420;2023-02-16T06:29:05;99912.66;;;-1.97;96.79
48792;BME280;34587;48.816;9.420;2023-02-16T06:31:31;99919.16;;;-2.02;97.01
48792;BME280;34587;48.816;9.420;2023-02-16T06:33:56;99916.69;;;-2.01;96.98
48792;BME280;34587;48.816;9.420;2023-02-16T06:36:22;99923.03;;;-1.93;96.46
48792;BME280;34587;48.816;9.420;2023-02-16T06:38:48;99910.00;;;-1.99;96.21
48792;BME280;34587;48.816;9.420;2023-02-16T06:41:14;99916.53;;;-2.04;96.25
48792;BME280;34587;48.816;9.420;2023-02-16T06:43:58;99930.03;;;-2.05;96.26
48792;BME280;34587;48.816;9.420;2023-02-16T06:46:24;99908.16;;;-2.03;96.61
48792;BME280;34587;48.816;9.420;2023-02-16T06:48:49;99909.88;;;-2.02;96.53
48792;BME280;34587;48.816;9.420;2023-02-16T06:51:18;99917.50;;;-2.02;96.15
48792;BME280;34587;48.816;9.420;2023-02-16T06:53:44;99920.97;;;-2.00;96.00
48792;BME280;34587;48.816;9.420;2023-02-16T06:56:09;99912.56;;;-1.99;95.62
48792;BME280;34587;48.816;9.420;2023-02-16T06:58:34;99916.69;;;-2.01;95.56
48792;BME280;34587;48.816;9.420;2023-02-16T07:01:00;99923.69;;;-1.97;95.66
48792;BME280;34587;48.816;9.420;2023-02-16T07:03:25;99921.19;;;-1.95;95.94
48792;BME280;34587;48.816;9.420;2023-02-16T07:05:50;99921.66;;;-1.86;95.71
48792;BME280;34587;48.816;9.420;2023-02-16T07:08:16;99921.09;;;-1.81;95.45
48792;BME280;34587;48.816;9.420;2023-02-16T07:10:45;99922.53;;;-1.86;95.46
48792;BME280;34587;48.816;9.420;2023-02-16T07:13:11;99929.50;;;-1.82;95.66
48792;BME280;34587;48.816;9.420;2023-02-16T07:15:37;99924.88;;;-1.72;95.17
48792;BME280;34587;48.816;9.420;2023-02-16T07:18:02;99927.66;;;-1.68;94.69
48792;BME280;34587;48.816;9.420;2023-02-16T07:20:28;99930.88;;;-1.54;94.29
48792;BME280;34587;48.816;9.420;2023-02-16T07:22:53;99925.22;;;-1.48;93.51
48792;BME280;34587;48.816;9.420;2023-02-16T07:25:18;99929.56;;;-1.46;93.62
48792;BME280;34587;48.816;9.420;2023-02-16T07:27:44;99935.59;;;-1.44;93.04
48792;BME280;34587;48.816;9.420;2023-02-16T07:30:10;99931.31;;;-1.45;93.24
48792;BME280;34587;48.816;9.420;2023-02-16T07:32:36;99934.38;;;-1.34;93.12
48792;BME280;34587;48.816;9.420;2023-02-16T07:35:03;99928.72;;;-1.28;92.76
48792;BME280;34587;48.816;9.420;2023-02-16T07:37:28;99939.03;;;-1.25;91.97
48792;BME280;34587;48.816;9.420;2023-02-16T07:39:53;99934.44;;;-1.33;92.28
48792;BME280;34587;48.816;9.420;2023-02-16T07:42:19;99930.00;;;-1.19;92.11
48792;BME280;34587;48.816;9.420;2023-02-16T07:44:45;99937.22;;;-1.10;91.16
48792;BME280;34587;48.816;9.420;2023-02-16T07:47:10;99931.00;;;-0.97;91.21
48792;BME280;34587;48.816;9.420;2023-02-16T07:49:37;99935.88;;;-1.02;90.90
48792;BME280;34587;48.816;9.420;2023-02-16T07:52:03;99939.75;;;-1.10;91.38
48792;BME280;34587;48.816;9.420;2023-02-16T07:54:30;99932.44;;;-0.85;90.90
48792;BME280;34587;48.816;9.420;2023-02-16T07:56:55;99938.50;;;-0.63;89.67
48792;BME280;34587;48.816;9.420;2023-02-16T07:59:21;99935.06;;;-0.27;88.91
48792;BME280;34587;48.816;9.420;2023-02-16T08:01:46;99940.81;;;-0.11;86.57
48792;BME280;34587;48.816;9.420;2023-02-16T08:04:11;99940.69;;;0.05;86.13
48792;BME280;34587;48.816;9.420;2023-02-16T08:06:37;99935.31;;;-0.01;86.26
48792;BME280;34587;48.816;9.420;2023-02-16T08:09:02;99936.50;;;0.07;86.14
48792;BME280;34587;48.816;9.420;2023-02-16T08:11:28;99941.00;;;0.13;85.55
48792;BME280;34587;48.816;9.420;2023-02-16T08:13:53;99944.69;;;0.19;85.43
48792;BME280;34587;48.816;9.420;2023-02-16T08:16:24;99945.88;;;0.69;84.33
48792;BME280;34587;48.816;9.420;2023-02-16T08:18:50;99929.97;;;1.65;79.96
48792;BME280;34587;48.816;9.420;2023-02-16T08:21:22;99914.91;;;4.23;71.72
48792;BME280;34587;48.816;9.420;2023-02-16T08:24:06;99898.53;;;7.22;59.89
48792;BME280;34587;48.816;9.420;2023-02-16T08:26:35;99893.03;;;8.43;53.52
48792;BME280;34587;48.816;9.420;2023-02-16T08:29:02;99895.44;;;9.48;50.78
48792;BME280;34587;48.816;9.420;2023-02-16T08:31:29;99897.38;;;11.13;44.89
48792;BME280;34587;48.816;9.420;2023-02-16T08:33:57;99895.41;;;11.87;43.24
48792;BME280;34587;48.816;9.420;2023-02-16T08:36:25;99900.03;;;12.67;41.92
48792;BME280;34587;48.816;9.420;2023-02-16T08:38:53;99909.44;;;11.37;42.10
48792;BME280;34587;48.816;9.420;2023-02-16T08:41:21;99913.69;;;9.77;46.52
48792;BME280;34587;48.816;9.420;2023-02-16T08:43:47;99909.13;;;12.07;42.67
48792;BME280;34587;48.816;9.420;2023-02-16T08:46:13;99904.94;;;11.79;42.81
48792;BME280;34587;48.816;9.420;2023-02-16T08:48:39;99906.09;;;10.55;45.19
48792;BME280;34587;48.816;9.420;2023-02-16T08:51:05;99901.94;;;12.52;42.59
48792;BME280;34587;48.816;9.420;2023-02-16T08:53:34;99886.50;;;13.96;38.79
48792;BME280;34587;48.816;9.420;2023-02-16T08:56:01;99880.31;;;15.11;36.95
48792;BME280;34587;48.816;9.420;2023-02-16T08:58:29;99885.25;;;16.10;35.39
48792;BME280;34587;48.816;9.420;2023-02-16T09:00:54;99880.28;;;17.08;34.06
48792;BME280;34587;48.816;9.420;2023-02-16T09:03:20;99886.53;;;17.02;33.59
48792;BME280;34587;48.816;9.420;2023-02-16T09:05:46;99888.16;;;16.74;33.60
48792;BME280;34587;48.816;9.420;2023-02-16T09:08:12;99890.44;;;16.50;34.39
48792;BME280;34587;48.816;9.420;2023-02-16T09:10:38;99893.53;;;16.30;34.18
48792;BME280;34587;48.816;9.420;2023-02-16T09:13:04;99882.13;;;17.66;32.90
48792;BME280;34587;48.816;9.420;2023-02-16T09:15:33;99888.22;;;16.69;33.64
48792;BME280;34587;48.816;9.420;2023-02-16T09:17:58;99882.84;;;15.15;37.00
48792;BME280;34587;48.816;9.420;2023-02-16T09:20:24;99888.66;;;16.51;34.68
48792;BME280;34587;48.816;9.420;2023-02-16T09:22:51;99885.56;;;14.03;38.30
48792;BME280;34587;48.816;9.420;2023-02-16T09:25:17;99890.88;;;16.32;34.54
48792;BME280;34587;48.816;9.420;2023-02-16T09:27:42;99873.78;;;17.52;33.57
48792;BME280;34587;48.816;9.420;2023-02-16T09:30:08;99874.75;;;18.09;32.62
48792;BME280;34587;48.816;9.420;2023-02-16T09:32:34;99866.56;;;21.42;27.80
48792;BME280;34587;48.816;9.420;2023-02-16T09:35:00;99875.41;;;19.21;30.70
48792;BME280;34587;48.816;9.420;2023-02-16T09:37:26;99882.69;;;19.63;29.82
48792;BME280;34587;48.816;9.420;2023-02-16T09:39:51;99874.75;;;18.90;31.42
48792;BME280;34587;48.816;9.420;2023-02-16T09:47:25;99877.28;;;21.18;28.02
48792;BME280;34587;48.816;9.420;2023-02-16T09:49:54;99870.31;;;23.36;25.80
48792;BME280;34587;48.816;9.420;2023-02-16T09:52:42;99875.94;;;21.28;28.11
48792;BME280;34587;48.816;9.420;2023-02-16T09:55:14;99875.13;;;22.95;26.10
48792;BME280;34587;48.816;9.420;2023-02-16T09:57:53;99877.31;;;21.76;27.14
48792;BME280;34587;48.816;9.420;2023-02-16T10:05:31;99856.25;;;23.84;25.21
48792;BME280;34587;48.816;9.420;2023-02-16T10:10:44;99841.25;;;25.50;23.92
48792;BME280;34587;48.816;9.420;2023-02-16T10:13:41;99844.84;;;26.19;23.37
48792;BME280;34587;48.816;9.420;2023-02-16T10:16:15;99846.75;;;24.44;25.00
48792;BME280;34587;48.816;9.420;2023-02-16T10:18:48;99849.13;;;25.80;24.02
48792;BME280;34587;48.816;9.420;2023-02-16T10:21:20;99844.63;;;26.76;22.98
48792;BME280;34587;48.816;9.420;2023-02-16T10:23:53;99854.03;;;26.27;22.93
48792;BME280;34587;48.816;9.420;2023-02-16T10:26:27;99841.22;;;27.63;21.23
48792;BME280;34587;48.816;9.420;2023-02-16T10:28:56;99846.13;;;28.06;21.35
48792;BME280;34587;48.816;9.420;2023-02-16T10:45:42;99841.06;;;30.09;18.33
48792;BME280;34587;48.816;9.420;2023-02-16T10:48:09;99832.53;;;31.01;18.26
48792;BME280;34587;48.816;9.420;2023-02-16T10:50:41;99845.06;;;24.43;22.43
48792;BME280;34587;48.816;9.420;2023-02-16T10:53:18;99835.78;;;24.34;22.68
48792;BME280;34587;48.816;9.420;2023-02-16T10:55:45;99829.50;;;27.02;19.75
48792;BME280;34587;48.816;9.420;2023-02-16T10:58:29;99841.03;;;23.06;22.75
48792;BME280;34587;48.816;9.420;2023-02-16T11:01:03;99819.03;;;26.48;20.79
48792;BME280;34587;48.816;9.420;2023-02-16T11:03:30;99821.00;;;26.97;20.20
48792;BME280;34587;48.816;9.420;2023-02-16T11:06:22;99812.16;;;28.91;18.06
48792;BME280;34587;48.816;9.420;2023-02-16T11:08:57;99811.97;;;28.59;17.84
48792;BME280;34587;48.816;9.420;2023-02-16T11:11:26;99808.44;;;26.86;19.88
48792;BME280;34587;48.816;9.420;2023-02-16T11:14:01;99822.00;;;23.17;23.04
48792;BME280;34587;48.816;9.420;2023-02-16T11:16:27;99814.34;;;22.24;23.50
48792;BME280;34587;48.816;9.420;2023-02-16T11:18:58;99805.06;;;24.61;21.97
48792;BME280;34587;48.816;9.420;2023-02-16T11:22:03;99810.28;;;22.88;23.14
48792;BME280;34587;48.816;9.420;2023-02-16T11:24:37;99803.72;;;23.45;22.72
48792;BME280;34587;48.816;9.420;2023-02-16T11:27:13;99787.91;;;26.62;19.54
48792;BME280;34587;48.816;9.420;2023-02-16T11:29:40;99793.34;;;27.37;19.72
48792;BME280;34587;48.816;9.420;2023-02-16T11:32:07;99793.03;;;24.10;22.49
48792;BME280;34587;48.816;9.420;2023-02-16T11:39:55;99783.72;;;24.93;20.95
48792;BME280;34587;48.816;9.420;2023-02-16T11:42:39;99782.13;;;23.84;21.96
48792;BME280;34587;48.816;9.420;2023-02-16T11:45:07;99773.97;;;26.72;19.80
48792;BME280;34587;48.816;9.420;2023-02-16T11:47:40;99765.88;;;26.48;19.54
48792;BME280;34587;48.816;9.420;2023-02-16T11:52:46;99772.47;;;23.83;21.63
48792;BME280;34587;48.816;9.420;2023-02-16T11:55:23;99762.19;;;24.69;20.18
48792;BME280;34587;48.816;9.420;2023-02-16T11:57:50;99763.69;;;23.99;21.72
48792;BME280;34587;48.816;9.420;2023-02-16T12:00:21;99752.28;;;25.85;19.20
48792;BME280;34587;48.816;9.420;2023-02-16T12:06:22;99751.81;;;22.07;22.93
48792;BME280;34587;48.816;9.420;2023-02-16T12:11:36;99752.13;;;22.88;22.32
48792;BME280;34587;48.816;9.420;2023-02-16T12:14:12;99747.44;;;22.25;23.32
48792;BME280;34587;48.816;9.420;2023-02-16T12:16:51;99730.00;;;24.01;20.81
48792;BME280;34587;48.816;9.420;2023-02-16T12:19:35;99724.34;;;24.96;20.59
48792;BME280;34587;48.816;9.420;2023-02-16T12:41:05;99720.41;;;17.40;30.46
48792;BME280;34587;48.816;9.420;2023-02-16T12:43:45;99711.75;;;16.47;32.53
48792;BME280;34587;48.816;9.420;2023-02-16T12:46:25;99716.28;;;15.31;34.48
48792;BME280;34587;48.816;9.420;2023-02-16T12:49:00;99708.63;;;15.24;34.69
48792;BME280;34587;48.816;9.420;2023-02-16T12:51:33;99704.41;;;15.16;35.07
48792;BME280;34587;48.816;9.420;2023-02-16T12:54:08;99703.13;;;14.96;35.55
48792;BME280;34587;48.816;9.420;2023-02-16T12:56:46;99694.69;;;15.25;35.54
48792;BME280;34587;48.816;9.420;2023-02-16T13:01:46;99677.41;;;15.56;34.98
48792;BME280;34587;48.816;9.420;2023-02-16T13:09:34;99665.31;;;15.52;34.58
48792;BME280;34587;48.816;9.420;2023-02-16T13:17:32;99649.75;;;16.50;33.30
48792;BME280;34587;48.816;9.420;2023-02-16T13:19:58;99649.31;;;16.00;34.01
48792;BME280;34587;48.816;9.420;2023-02-16T13:22:35;99644.31;;;16.56;33.48
48792;BME280;34587;48.816;9.420;2023-02-16T13:33:06;99638.34;;;17.12;32.86
48792;BME280;34587;48.816;9.420;2023-02-16T13:35:38;99638.22;;;16.87;32.59
48792;BME280;34587;48.816;9.420;2023-02-16T13:41:08;99649.91;;;16.44;33.32
48792;BME280;34587;48.816;9.420;2023-02-16T13:43:43;99646.66;;;16.03;34.30
48792;BME280;34587;48.816;9.420;2023-02-16T13:46:30;99642.56;;;15.93;34.22
48792;BME280;34587;48.816;9.420;2023-02-16T13:48:57;99653.47;;;15.75;35.08
48792;BME280;34587;48.816;9.420;2023-02-16T13:51:25;99644.66;;;15.41;36.23
48792;BME280;34587;48.816;9.420;2023-02-16T13:54:00;99656.72;;;15.10;35.75
48792;BME280;34587;48.816;9.420;2023-02-16T14:01:43;99658.88;;;14.48;38.30
48792;BME280;34587;48.816;9.420;2023-02-16T14:06:39;99649.88;;;14.18;38.36
48792;BME280;34587;48.816;9.420;2023-02-16T14:17:25;99644.19;;;14.42;38.91
48792;BME280;34587;48.816;9.420;2023-02-16T14:19:59;99654.41;;;14.54;38.79
48792;BME280;34587;48.816;9.420;2023-02-16T14:30:55;99651.19;;;13.94;39.05
48792;BME280;34587;48.816;9.420;2023-02-16T14:33:42;99649.41;;;13.96;39.61
48792;BME280;34587;48.816;9.420;2023-02-16T14:36:16;99653.97;;;13.83;40.00
48792;BME280;34587;48.816;9.420;2023-02-16T14:38:46;99651.84;;;14.05;39.48
48792;BME280;34587;48.816;9.420;2023-02-16T14:46:59;99654.34;;;13.58;41.42
48792;BME280;34587;48.816;9.420;2023-02-16T14:58:00;99655.47;;;13.45;42.59
48792;BME280;34587;48.816;9.420;2023-02-16T15:03:19;99652.72;;;13.54;42.72
48792;BME280;34587;48.816;9.420;2023-02-16T15:05:55;99659.56;;;13.58;43.07
48792;BME280;34587;48.816;9.420;2023-02-16T15:08:25;99657.44;;;13.82;43.10
48792;BME280;34587;48.816;9.420;2023-02-16T15:11:12;99653.09;;;13.82;43.01
48792;BME280;34587;48.816;9.420;2023-02-16T15:13:39;99660.13;;;13.77;43.55
48792;BME280;34587;48.816;9.420;2023-02-16T15:16:05;99650.25;;;13.96;42.51
48792;BME280;34587;48.816;9.420;2023-02-16T15:18:35;99649.78;;;13.74;43.12
48792;BME280;34587;48.816;9.420;2023-02-16T15:21:02;99650.41;;;13.87;44.35
48792;BME280;34587;48.816;9.420;2023-02-16T15:23:47;99651.25;;;13.87;43.67
48792;BME280;34587;48.816;9.420;2023-02-16T15:26:19;99650.38;;;13.90;44.38
48792;BME280;34587;48.816;9.420;2023-02-16T15:28:54;99645.00;;;13.99;43.65
48792;BME280;34587;48.816;9.420;2023-02-16T15:31:24;99644.34;;;13.86;43.86
48792;BME280;34587;48.816;9.420;2023-02-16T15:33:59;99639.00;;;13.94;44.26
48792;BME280;34587;48.816;9.420;2023-02-16T15:36:34;99632.94;;;13.92;44.47
48792;BME280;34587;48.816;9.420;2023-02-16T15:39:03;99634.00;;;13.82;45.02
48792;BME280;34587;48.816;9.420;2023-02-16T15:41:40;99636.84;;;13.70;45.13
48792;BME280;34587;48.816;9.420;2023-02-16T15:44:27;99624.63;;;13.72;45.12
48792;BME280;34587;48.816;9.420;2023-02-16T15:47:05;99619.41;;;13.72;45.05
48792;BME280;34587;48.816;9.420;2023-02-16T15:49:32;99625.72;;;13.58;44.73
48792;BME280;34587;48.816;9.420;2023-02-16T15:51:59;99619.84;;;13.47;45.26
48792;BME280;34587;48.816;9.420;2023-02-16T15:54:29;99617.16;;;13.52;45.51
48792;BME280;34587;48.816;9.420;2023-02-16T15:56:58;99618.19;;;13.42;45.31
48792;BME280;34587;48.816;9.420;2023-02-16T16:02:03;99611.91;;;12.96;46.50
48792;BME280;34587;48.816;9.420;2023-02-16T16:04:38;99615.81;;;12.65;47.39
48792;BME280;34587;48.816;9.420;2023-02-16T16:07:07;99621.16;;;12.52;48.04
48792;BME280;34587;48.816;9.420;2023-02-16T16:09:34;99625.53;;;12.49;47.74
48792;BME280;34587;48.816;9.420;2023-02-16T16:12:05;99625.78;;;12.26;48.74
48792;BME280;34587;48.816;9.420;2023-02-16T16:14:34;99632.06;;;12.06;49.81
48792;BME280;34587;48.816;9.420;2023-02-16T16:17:02;99633.94;;;11.92;50.25
48792;BME280;34587;48.816;9.420;2023-02-16T16:19:34;99636.53;;;11.92;51.96
48792;BME280;34587;48.816;9.420;2023-02-16T16:22:01;99623.63;;;11.86;52.78
48792;BME280;34587;48.816;9.420;2023-02-16T16:26:59;99620.41;;;11.53;54.36
48792;BME280;34587;48.816;9.420;2023-02-16T16:29:39;99629.13;;;11.46;54.71
48792;BME280;34587;48.816;9.420;2023-02-16T16:32:27;99627.53;;;11.27;56.08
48792;BME280;34587;48.816;9.420;2023-02-16T16:34:55;99634.53;;;11.16;56.49
48792;BME280;34587;48.816;9.420;2023-02-16T16:37:29;99638.09;;;10.99;57.31
48792;BME280;34587;48.816;9.420;2023-02-16T16:40:24;99640.78;;;10.81;56.96
48792;BME280;34587;48.816;9.420;2023-02-16T16:45:36;99636.56;;;10.62;57.41
48792;BME280;34587;48.816;9.420;2023-02-16T16:48:18;99640.09;;;10.45;58.54
48792;BME280;34587;48.816;9.420;2023-02-16T16:50:44;99644.41;;;10.45;58.74
48792;BME280;34587;48.816;9.420;2023-02-16T16:55:54;99645.28;;;10.33;59.09
48792;BME280;34587;48.816;9.420;2023-02-16T16:58:19;99636.66;;;10.40;60.04
48792;BME280;34587;48.816;9.420;2023-02-16T17:00:44;99645.25;;;10.45;59.40
48792;BME280;34587;48.816;9.420;2023-02-16T17:03:15;99646.13;;;10.43;58.85
48792;BME280;34587;48.816;9.420;2023-02-16T17:05:41;99647.03;;;10.31;59.51
48792;BME280;34587;48.816;9.420;2023-02-16T17:08:07;99647.03;;;10.16;59.74
48792;BME280;34587;48.816;9.420;2023-02-16T17:10:34;99633.19;;;10.20;59.28
48792;BME280;34587;48.816;9.420;2023-02-16T17:13:00;99643.59;;;10.14;60.13
48792;BME280;34587;48.816;9.420;2023-02-16T17:18:15;99655.69;;;10.09;59.57
48792;BME280;34587;48.816;9.420;2023-02-16T17:20:41;99657.44;;;9.97;59.96
48792;BME280;34587;48.816;9.420;2023-02-16T17:23:13;99653.97;;;9.98;59.26
48792;BME280;34587;48.816;9.420;2023-02-16T17:25:39;99650.53;;;9.87;59.79
48792;BME280;34587;48.816;9.420;2023-02-16T17:28:04;99656.56;;;9.92;59.97
48792;BME280;34587;48.816;9.420;2023-02-16T17:30:30;99662.63;;;9.82;60.30
48792;BME280;34587;48.816;9.420;2023-02-16T17:32:56;99662.63;;;9.82;60.52
48792;BME280;34587;48.816;9.420;2023-02-16T17:35:21;99660.84;;;10.04;60.17
48792;BME280;34587;48.816;9.420;2023-02-16T17:37:47;99660.88;;;9.90;60.59
48792;BME280;34587;48.816;9.420;2023-02-16T17:40:15;99669.53;;;9.83;60.68
48792;BME280;34587;48.816;9.420;2023-02-16T17:42:42;99663.50;;;9.73;61.59
48792;BME280;34587;48.816;9.420;2023-02-16T17:45:08;99660.91;;;9.60;62.22
48792;BME280;34587;48.816;9.420;2023-02-16T17:47:34;99660.03;;;9.53;62.40
48792;BME280;34587;48.816;9.420;2023-02-16T17:49:59;99653.16;;;9.58;62.27
48792;BME280;34587;48.816;9.420;2023-02-16T17:52:24;99665.22;;;9.58;62.30
48792;BME280;34587;48.816;9.420;2023-02-16T17:54:50;99655.72;;;9.53;62.80
48792;BME280;34587;48.816;9.420;2023-02-16T17:57:16;99662.63;;;9.39;63.39
48792;BME280;34587;48.816;9.420;2023-02-16T17:59:41;99666.94;;;9.51;62.06
48792;BME280;34587;48.816;9.420;2023-02-16T18:02:09;99664.34;;;9.65;60.53
48792;BME280;34587;48.816;9.420;2023-02-16T18:04:35;99662.63;;;9.65;60.70
48792;BME280;34587;48.816;9.420;2023-02-16T18:07:11;99670.41;;;9.53;61.59
48792;BME280;34587;48.816;9.420;2023-02-16T18:09:37;99671.25;;;9.50;61.14
48792;BME280;34587;48.816;9.420;2023-02-16T18:12:02;99666.91;;;9.36;61.26
48792;BME280;34587;48.816;9.420;2023-02-16T18:14:27;99672.94;;;9.30;61.58
48792;BME280;34587;48.816;9.420;2023-02-16T18:16:53;99678.13;;;9.24;61.72
48792;BME280;34587;48.816;9.420;2023-02-16T18:19:18;99677.25;;;9.23;62.06
48792;BME280;34587;48.816;9.420;2023-02-16T18:21:44;99670.34;;;9.22;62.18
48792;BME280;34587;48.816;9.420;2023-02-16T18:24:10;99679.84;;;9.25;62.33
48792;BME280;34587;48.816;9.420;2023-02-16T18:26:35;99687.59;;;9.25;62.81
48792;BME280;34587;48.816;9.420;2023-02-16T18:29:00;99685.03;;;9.34;63.08
48792;BME280;34587;48.816;9.420;2023-02-16T18:31:26;99686.75;;;9.34;63.45
48792;BME280;34587;48.816;9.420;2023-02-16T18:33:51;99689.34;;;9.29;64.00
48792;BME280;34587;48.816;9.420;2023-02-16T18:36:16;99692.75;;;9.26;64.77
48792;BME280;34587;48.816;9.420;2023-02-16T18:38:42;99698.78;;;9.15;65.37
48792;BME280;34587;48.816;9.420;2023-02-16T18:41:07;99696.13;;;9.04;66.27
48792;BME280;34587;48.816;9.420;2023-02-16T18:43:33;99701.31;;;9.04;67.06
48792;BME280;34587;48.816;9.420;2023-02-16T18:46:06;99697.03;;;9.12;67.05
48792;BME280;34587;48.816;9.420;2023-02-16T18:48:32;99709.06;;;8.96;68.56
48792;BME280;34587;48.816;9.420;2023-02-16T18:50:57;99695.28;;;9.00;68.82
48792;BME280;34587;48.816;9.420;2023-02-16T18:53:22;99710.75;;;8.85;68.68
48792;BME280;34587;48.816;9.420;2023-02-16T18:55:48;99711.59;;;8.87;69.26
48792;BME280;34587;48.816;9.420;2023-02-16T18:58:13;99709.94;;;9.00;70.63
48792;BME280;34587;48.816;9.420;2023-02-16T19:00:39;99702.16;;;8.95;71.53
48792;BME280;34587;48.816;9.420;2023-02-16T19:03:04;99703.81;;;8.78;73.29
48792;BME280;34587;48.816;9.420;2023-02-16T19:05:30;99703.72;;;8.60;73.42
48792;BME280;34587;48.816;9.420;2023-02-16T19:07:55;99703.69;;;8.54;74.42
48792;BME280;34587;48.816;9.420;2023-02-16T19:10:21;99704.59;;;8.59;73.63
48792;BME280;34587;48.816;9.420;2023-02-16T19:12:46;99703.78;;;8.70;72.35
48792;BME280;34587;48.816;9.420;2023-02-16T19:15:11;99700.28;;;8.59;72.82
48792;BME280;34587;48.816;9.420;2023-02-16T19:17:37;99703.81;;;8.78;71.21
48792;BME280;34587;48.816;9.420;2023-02-16T19:20:04;99708.94;;;8.66;72.37
48792;BME280;34587;48.816;9.420;2023-02-16T19:22:30;99702.94;;;8.73;72.53
48792;BME280;34587;48.816;9.420;2023-02-16T19:24:57;99711.50;;;8.63;74.10
48792;BME280;34587;48.816;9.420;2023-02-16T19:27:23;99715.78;;;8.58;75.58
48792;BME280;34587;48.816;9.420;2023-02-16T19:29:48;99709.69;;;8.43;75.83
48792;BME280;34587;48.816;9.420;2023-02-16T19:32:13;99707.06;;;8.40;76.05
48792;BME280;34587;48.816;9.420;2023-02-16T19:34:39;99700.19;;;8.39;76.97
48792;BME280;34587;48.816;9.420;2023-02-16T19:37:04;99695.97;;;8.57;77.89
48792;BME280;34587;48.816;9.420;2023-02-16T19:39:29;99703.78;;;8.66;77.23
48792;BME280;34587;48.816;9.420;2023-02-16T19:41:54;99699.19;;;8.22;80.27
48792;BME280;34587;48.816;9.420;2023-02-16T19:44:20;99705.13;;;8.09;79.53
48792;BME280;34587;48.816;9.420;2023-02-16T19:46:45;99694.78;;;8.06;78.96